Time;durP1;ratioP1;P1;durP2;ratioP2;P2;SDS_P1;SDS_P2;PMS_P1;PMS_P2;Temp;Humidity;BMP_temperature;BMP_pressure;BME280_temperature;BME280_humidity;BME280_pressure;Samples;Min_cycle;Max_cycle;Signal;HPM_P1;HPM_P2
2021/10/06 00:00:49;;;;;;;;;1.00;1.00;;;;;19.59;51.76;101287.28;5057442;28;46087;-54
2021/10/06 00:03:15;;;;;;;;;1.33;1.00;;;;;19.60;51.75;101290.81;5057149;28;45283;-51
2021/10/06 00:05:40;;;;;;;;;0.33;0.33;;;;;19.59;51.71;101297.03;5057776;28;45217;-50
2021/10/06 00:08:06;;;;;;;;;1.00;0.00;;;;;19.56;51.45;101293.50;5057569;28;45394;-52
2021/10/06 00:10:31;;;;;;;;;0.67;0.00;;;;;19.58;51.38;101311.28;5057357;28;46973;-53
2021/10/06 00:12:56;;;;;;;;;1.00;1.00;;;;;19.57;51.41;101313.06;5057357;28;45212;-47
2021/10/06 00:15:23;;;;;;;;;1.00;1.00;;;;;19.58;51.33;101308.63;5057525;28;45514;-53
2021/10/06 00:17:48;;;;;;;;;1.00;1.00;;;;;19.58;51.32;101321.97;5058920;28;45336;-51
2021/10/06 00:20:14;;;;;;;;;2.33;1.00;;;;;19.56;51.27;101322.84;5060611;28;46990;-48
2021/10/06 00:22:39;;;;;;;;;1.00;1.00;;;;;19.57;50.94;101339.75;5060715;28;45266;-47
2021/10/06 00:25:06;;;;;;;;;0.67;0.67;;;;;19.56;51.18;101330.84;5060842;28;45463;-46
2021/10/06 00:27:31;;;;;;;;;2.33;1.00;;;;;19.58;50.97;101340.63;5060892;28;45398;-48
2021/10/06 00:29:57;;;;;;;;;2.00;1.00;;;;;19.56;51.08;101335.31;5060565;28;46998;-53
2021/10/06 00:32:22;;;;;;;;;3.00;1.00;;;;;19.58;50.90;101337.97;5060126;28;45366;-50
2021/10/06 00:34:47;;;;;;;;;0.33;0.33;;;;;19.56;51.04;101336.19;5060831;28;45310;-50
2021/10/06 00:37:14;;;;;;;;;0.00;0.00;;;;;19.56;50.87;101341.50;5061259;28;45183;-52
2021/10/06 00:39:39;;;;;;;;;1.33;1.33;;;;;19.56;50.98;101344.19;5060363;28;46970;-48
2021/10/06 00:42:05;;;;;;;;;0.00;0.00;;;;;19.56;50.78;101338.84;5060114;28;45389;-46
2021/10/06 00:44:36;;;;;;;;;1.67;1.00;;;;;19.56;50.77;101352.19;5060769;28;45295;-48
2021/10/06 00:47:02;;;;;;;;;1.00;1.00;;;;;19.56;50.80;101354.84;5060707;28;45324;-50
2021/10/06 00:49:27;;;;;;;;;0.00;0.00;;;;;19.54;50.65;101348.66;5060109;28;46271;-46
2021/10/06 00:51:53;;;;;;;;;0.00;0.00;;;;;19.55;50.56;101350.44;5060452;28;45284;-49
2021/10/06 00:54:18;;;;;;;;;1.33;0.67;;;;;19.54;50.74;101359.31;5060554;28;45224;-48
2021/10/06 00:56:44;;;;;;;;;3.00;0.33;;;;;19.54;50.48;101345.97;5060537;28;45240;-49
2021/10/06 00:59:09;;;;;;;;;1.00;1.00;;;;;19.54;50.48;101350.44;5060329;28;45362;-51
2021/10/06 01:01:35;;;;;;;;;0.00;0.00;;;;;19.54;50.66;101348.66;5060285;28;45320;-56
2021/10/06 01:04:03;;;;;;;;;1.67;0.67;;;;;19.55;50.61;101357.53;5060112;28;45360;-55
2021/10/06 01:06:30;;;;;;;;;1.00;0.00;;;;;19.53;50.54;101346.91;5060438;28;45407;-47
2021/10/06 01:08:58;;;;;;;;;1.00;0.67;;;;;19.54;50.53;101347.78;5059746;28;46381;-53
2021/10/06 01:11:23;;;;;;;;;1.00;1.00;;;;;19.54;50.46;101358.47;5060019;28;45437;-55
2021/10/06 01:13:49;;;;;;;;;0.00;0.00;;;;;19.53;50.42;101352.22;5060131;28;45503;-51
2021/10/06 01:16:15;;;;;;;;;0.33;0.00;;;;;19.54;50.50;101353.13;5060279;28;45464;-54
2021/10/06 01:18:41;;;;;;;;;2.00;0.00;;;;;19.54;50.44;101364.66;5059653;28;47218;-50
2021/10/06 01:21:14;;;;;;;;;3.67;0.33;;;;;19.54;50.44;101359.31;5059961;28;45344;-48
2021/10/06 01:23:40;;;;;;;;;1.00;0.00;;;;;19.53;50.44;101352.22;5060099;28;45300;-56
2021/10/06 01:26:06;;;;;;;;;1.00;0.00;;;;;19.53;50.19;101365.56;5059919;28;45477;-54
2021/10/06 01:28:32;;;;;;;;;1.00;1.00;;;;;19.53;50.30;101367.34;5059273;28;46545;-55
2021/10/06 01:30:58;;;;;;;;;1.67;0.00;;;;;19.54;50.42;101371.78;5058986;28;45357;-54
2021/10/06 01:33:23;;;;;;;;;0.00;0.00;;;;;19.53;50.38;101373.56;5059364;28;45460;-55
2021/10/06 01:35:49;;;;;;;;;1.67;0.67;;;;;19.53;50.10;101372.66;5059977;28;45334;-54
2021/10/06 01:38:14;;;;;;;;;1.00;1.00;;;;;19.53;50.21;101375.34;5059481;28;45986;-55
2021/10/06 01:40:39;;;;;;;;;0.00;0.00;;;;;19.53;50.11;101378.00;5059541;28;45340;-46
2021/10/06 01:43:05;;;;;;;;;0.67;0.67;;;;;19.54;50.35;101385.13;5059772;28;45247;-56
2021/10/06 01:45:31;;;;;;;;;0.00;0.00;;;;;19.53;50.12;101386.00;5059793;28;45513;-55
2021/10/06 01:48:10;;;;;;;;;0.00;0.00;;;;;19.53;50.10;101384.22;5059346;28;45984;-48
2021/10/06 01:50:41;;;;;;;;;0.67;0.33;;;;;19.52;50.34;101377.09;5059245;28;45358;-49
2021/10/06 01:53:07;;;;;;;;;0.00;0.00;;;;;19.52;50.23;101378.91;5059615;28;45314;-57
2021/10/06 01:55:33;;;;;;;;;0.00;0.00;;;;;19.51;50.09;101380.69;5059633;28;45327;-54
2021/10/06 01:58:05;;;;;;;;;2.33;1.00;;;;;19.52;49.91;101385.09;5059190;28;45840;-54
2021/10/06 02:00:31;;;;;;;;;1.33;0.00;;;;;19.52;50.13;101381.59;5059333;28;45409;-51
2021/10/06 02:02:57;;;;;;;;;0.67;0.00;;;;;19.51;49.85;101377.13;5059153;28;45423;-51
2021/10/06 02:05:23;;;;;;;;;1.00;0.00;;;;;19.52;50.17;101386.91;5059259;28;45444;-45
2021/10/06 02:07:48;;;;;;;;;1.00;1.00;;;;;19.52;49.96;101378.91;5058995;28;46212;-53
2021/10/06 02:10:15;;;;;;;;;2.00;0.00;;;;;19.52;49.99;101385.09;5059162;28;45312;-59
2021/10/06 02:12:41;;;;;;;;;0.00;0.00;;;;;19.51;50.21;101375.34;5059358;28;45282;-54
2021/10/06 02:15:07;;;;;;;;;0.00;0.00;;;;;19.50;50.10;101378.91;5059365;28;45343;-59
2021/10/06 02:17:33;;;;;;;;;1.00;1.00;;;;;19.49;49.97;101377.16;5058582;28;48104;-56
2021/10/06 02:19:58;;;;;;;;;0.00;0.00;;;;;19.50;50.08;101380.72;5058983;28;45371;-55
2021/10/06 02:22:23;;;;;;;;;1.33;0.00;;;;;19.49;50.03;101384.25;5058904;28;45330;-58
2021/10/06 02:24:49;;;;;;;;;1.00;0.33;;;;;19.49;50.02;101401.16;5059293;28;45318;-59
2021/10/06 02:27:14;;;;;;;;;0.00;0.00;;;;;19.49;49.95;101386.94;5058805;28;47026;-50
2021/10/06 02:29:40;;;;;;;;;0.33;0.33;;;;;19.49;50.06;101385.16;5058824;28;45319;-49
2021/10/06 02:32:05;;;;;;;;;0.00;0.00;;;;;19.49;49.90;101382.50;5058636;28;45412;-53
2021/10/06 02:34:31;;;;;;;;;1.00;1.00;;;;;19.48;49.99;101380.72;5058896;28;45306;-53
2021/10/06 02:36:56;;;;;;;;;1.00;0.33;;;;;19.49;49.82;101393.16;5058551;28;46044;-54
2021/10/06 02:39:22;;;;;;;;;0.00;0.00;;;;;19.49;49.75;101397.59;5058610;28;45266;-46
2021/10/06 02:41:47;;;;;;;;;1.00;0.00;;;;;19.48;50.00;101406.50;5058777;28;45312;-55
2021/10/06 02:44:13;;;;;;;;;0.00;0.00;;;;;19.48;49.76;101412.69;5058771;28;45403;-49
2021/10/06 02:46:38;;;;;;;;;3.00;0.00;;;;;19.48;49.80;101414.50;5058372;28;46075;-57
2021/10/06 02:49:04;;;;;;;;;2.33;0.00;;;;;19.47;49.79;101405.63;5058420;28;45334;-57
2021/10/06 02:51:29;;;;;;;;;1.67;0.33;;;;;19.48;49.78;101407.38;5058607;28;45501;-55
2021/10/06 02:53:55;;;;;;;;;2.00;1.00;;;;;19.47;50.00;101408.28;5058796;28;45354;-55
2021/10/06 02:56:20;;;;;;;;;0.00;0.00;;;;;19.48;49.84;101404.69;5058344;28;46030;-57
2021/10/06 02:58:46;;;;;;;;;0.00;0.00;;;;;19.48;49.70;101420.69;5058615;28;45254;-54
2021/10/06 03:01:11;;;;;;;;;0.00;0.00;;;;;19.48;49.93;101422.50;5058603;28;45374;-53
2021/10/06 03:03:36;;;;;;;;;0.00;0.00;;;;;19.47;49.89;101426.94;5058485;28;45224;-57
2021/10/06 03:06:02;;;;;;;;;0.00;0.00;;;;;19.48;49.70;101434.03;5058227;28;46134;-57
2021/10/06 03:08:28;;;;;;;;;2.00;0.00;;;;;19.48;49.91;101428.69;5058470;28;45430;-55
2021/10/06 03:10:53;;;;;;;;;0.33;0.33;;;;;19.46;49.93;101433.16;5056863;28;45680;-56
2021/10/06 03:13:19;;;;;;;;;0.00;0.00;;;;;19.48;49.95;101430.50;5058420;28;45370;-55
2021/10/06 03:15:44;;;;;;;;;0.33;0.33;;;;;19.47;49.71;101432.28;5058139;28;47048;-54
2021/10/06 03:18:10;;;;;;;;;1.00;1.00;;;;;19.48;50.10;101441.16;5057848;28;45418;-58
2021/10/06 03:20:36;;;;;;;;;1.00;0.00;;;;;19.47;50.01;101442.94;5057698;28;45405;-57
2021/10/06 03:23:08;;;;;;;;;1.67;0.67;;;;;19.47;49.83;101442.94;5058277;28;45443;-55
2021/10/06 03:25:33;;;;;;;;;0.67;0.00;;;;;19.46;49.68;101441.16;5057810;28;46236;-50
2021/10/06 03:27:59;;;;;;;;;1.00;0.00;;;;;19.46;49.85;101449.16;5058073;28;45406;-56
2021/10/06 03:30:25;;;;;;;;;0.00;0.00;;;;;19.46;49.96;101440.31;5057975;28;45441;-52
2021/10/06 03:32:50;;;;;;;;;1.67;0.67;;;;;19.45;49.73;101434.06;5057543;28;45291;-54
2021/10/06 03:35:20;;;;;;;;;0.00;0.00;;;;;19.46;49.62;101441.16;5057658;28;46714;-52
2021/10/06 03:37:46;;;;;;;;;1.00;0.00;;;;;19.45;49.61;101450.06;5057913;28;45221;-54
2021/10/06 03:40:12;;;;;;;;;2.00;1.00;;;;;19.45;49.54;101450.06;5058018;28;45280;-53
2021/10/06 03:42:38;;;;;;;;;0.00;0.00;;;;;19.46;49.57;101458.97;5057965;28;45235;-55
2021/10/06 03:45:05;;;;;;;;;0.00;0.00;;;;;19.44;49.69;101459.84;5057727;28;47157;-54
2021/10/06 03:47:30;;;;;;;;;1.00;1.00;;;;;19.44;49.58;101456.28;5057793;28;45334;-51
2021/10/06 03:49:56;;;;;;;;;1.67;0.00;;;;;19.44;49.89;101467.84;5057649;28;45539;-57
2021/10/06 03:52:21;;;;;;;;;0.00;0.00;;;;;19.44;49.80;101467.84;5057283;28;45314;-57
2021/10/06 03:54:46;;;;;;;;;0.00;0.00;;;;;19.44;49.57;101465.19;5057406;28;46142;-53
2021/10/06 03:57:12;;;;;;;;;0.67;0.00;;;;;19.44;49.72;101454.50;5057597;28;45363;-56
2021/10/06 03:59:37;;;;;;;;;1.00;1.00;;;;;19.45;49.62;101471.41;5057774;28;45472;-58
2021/10/06 04:02:02;;;;;;;;;0.00;0.00;;;;;19.44;49.57;101467.84;5057763;28;45386;-57
2021/10/06 04:04:28;;;;;;;;;0.33;0.33;;;;;19.44;49.59;101480.28;5057338;28;47074;-55
2021/10/06 04:06:53;;;;;;;;;0.67;0.00;;;;;19.44;49.57;101486.50;5057206;28;45342;-56
2021/10/06 04:09:18;;;;;;;;;2.00;0.00;;;;;19.43;49.76;101494.53;5057711;28;45580;-52
2021/10/06 04:11:44;;;;;;;;;0.67;0.00;;;;;19.44;49.63;101493.63;5057590;28;45520;-55
2021/10/06 04:14:09;;;;;;;;;1.00;1.00;;;;;19.44;49.59;101498.94;5057409;28;46195;-55
2021/10/06 04:16:34;;;;;;;;;0.50;0.00;;;;;19.44;49.74;101488.28;5057506;28;45237;-53
2021/10/06 04:19:00;;;;;;;;;0.00;0.00;;;;;19.43;49.77;101490.09;5057488;28;45349;-49
2021/10/06 04:21:25;;;;;;;;;0.67;0.67;;;;;19.44;49.51;101496.28;5057461;28;45242;-55
2021/10/06 04:23:51;;;;;;;;;0.00;0.00;;;;;19.43;49.51;101492.75;5057250;28;46937;-55
2021/10/06 04:26:16;;;;;;;;;1.00;0.00;;;;;19.44;49.71;101504.28;5057180;28;45404;-49
2021/10/06 04:28:41;;;;;;;;;2.33;1.00;;;;;19.43;49.61;101500.75;5057366;28;45328;-47
2021/10/06 04:31:07;;;;;;;;;0.00;0.00;;;;;19.43;49.70;101491.84;5057454;28;45385;-51
2021/10/06 04:33:32;;;;;;;;;1.00;0.00;;;;;19.42;49.45;101496.31;5056881;28;46267;-49
2021/10/06 04:35:57;;;;;;;;;0.67;0.00;;;;;19.42;49.52;101496.31;5057174;28;45425;-46
2021/10/06 04:38:23;;;;;;;;;0.33;0.00;;;;;19.42;49.59;101493.63;5057347;28;45145;-50
2021/10/06 04:40:48;;;;;;;;;0.00;0.00;;;;;19.42;49.42;101500.75;5057340;28;45292;-55
2021/10/06 04:43:13;;;;;;;;;1.67;0.67;;;;;19.42;49.64;101487.41;5056813;28;46134;-53
2021/10/06 04:45:40;;;;;;;;;0.00;0.00;;;;;19.42;49.66;101495.41;5057136;28;45313;-59
2021/10/06 04:48:06;;;;;;;;;2.00;0.00;;;;;19.42;49.43;101498.06;5057196;28;45318;-57
2021/10/06 04:50:31;;;;;;;;;0.33;0.33;;;;;19.42;49.38;101500.75;5057155;28;45363;-46
2021/10/06 04:52:57;;;;;;;;;0.33;0.00;;;;;19.41;49.40;101509.66;5056579;28;46809;-48
2021/10/06 04:55:22;;;;;;;;;0.67;0.67;;;;;19.41;49.59;101507.88;5056933;28;45440;-49
2021/10/06 04:57:48;;;;;;;;;0.00;0.00;;;;;19.41;49.74;101515.88;5057082;28;45441;-54
2021/10/06 05:00:14;;;;;;;;;1.00;0.00;;;;;19.40;49.59;101510.53;5057266;28;45247;-53
2021/10/06 05:02:39;;;;;;;;;1.33;0.00;;;;;19.40;49.43;101511.41;5056751;28;46940;-55
2021/10/06 05:05:05;;;;;;;;;2.00;0.00;;;;;19.41;49.51;101522.97;5058645;28;45208;-47
2021/10/06 05:07:31;;;;;;;;;0.00;0.00;;;;;19.41;49.43;101523.88;5060083;28;45447;-45
2021/10/06 05:09:56;;;;;;;;;2.00;0.00;;;;;19.41;49.42;101528.31;5060322;28;45216;-48
2021/10/06 05:12:21;;;;;;;;;1.67;1.00;;;;;19.40;49.45;101532.75;5060159;28;46123;-47
2021/10/06 05:14:47;;;;;;;;;0.00;0.00;;;;;19.41;49.44;101534.53;5060281;28;45315;-46
2021/10/06 05:17:12;;;;;;;;;1.67;1.00;;;;;19.40;49.61;101538.09;5060091;28;45197;-48
2021/10/06 05:19:37;;;;;;;;;1.00;0.00;;;;;19.40;49.76;101540.75;5060291;28;45421;-49
2021/10/06 05:22:03;;;;;;;;;0.00;0.00;;;;;19.40;50.86;101546.09;5058699;28;46246;-54
2021/10/06 05:24:28;;;;;;;;;2.33;0.33;;;;;19.40;50.92;101547.84;5059681;28;45337;-46
2021/10/06 05:26:54;;;;;;;;;1.00;0.00;;;;;19.41;51.38;101558.53;5059991;28;45527;-55
2021/10/06 05:29:21;;;;;;;;;0.00;0.00;;;;;19.41;51.72;101544.31;5060317;28;45435;-54
2021/10/06 05:31:47;;;;;;;;;0.00;0.00;;;;;19.42;51.80;101551.41;5059587;28;46423;-58
2021/10/06 05:34:12;;;;;;;;;2.00;0.00;;;;;19.41;52.06;101561.19;5059833;28;45320;-53
2021/10/06 05:36:38;;;;;;;;;0.00;0.00;;;;;19.41;52.12;101557.63;5059864;28;45618;-49
2021/10/06 05:39:03;;;;;;;;;0.00;0.00;;;;;19.42;52.09;101556.72;5059984;28;46298;-53
2021/10/06 05:41:29;;;;;;;;;0.00;0.00;;;;;19.42;52.00;101572.72;5059389;28;45977;-53
2021/10/06 05:43:54;;;;;;;;;0.00;0.00;;;;;19.41;52.26;101569.19;5059709;28;45314;-54
2021/10/06 05:46:20;;;;;;;;;0.00;0.00;;;;;19.41;52.26;101566.53;5059639;28;45716;-46
2021/10/06 05:48:45;;;;;;;;;0.00;0.00;;;;;19.41;52.59;101579.88;5059844;28;45488;-57
2021/10/06 05:51:10;;;;;;;;;1.00;0.00;;;;;19.41;52.57;101585.19;5059486;28;46538;-46
2021/10/06 05:53:36;;;;;;;;;2.33;0.00;;;;;19.42;52.37;101586.06;5059091;28;45383;-50
2021/10/06 05:56:01;;;;;;;;;3.00;0.00;;;;;19.42;52.50;101588.72;5059329;28;45478;-53
2021/10/06 05:58:27;;;;;;;;;2.00;0.67;;;;;19.42;52.72;101602.06;5059797;28;45372;-49
2021/10/06 06:00:53;;;;;;;;;0.00;0.00;;;;;19.42;52.53;101596.72;5059398;28;47321;-57
2021/10/06 06:03:18;;;;;;;;;0.67;0.00;;;;;19.42;52.68;101596.72;5059358;28;45446;-46
2021/10/06 06:05:44;;;;;;;;;0.00;0.00;;;;;19.44;52.51;101597.59;5059362;28;45317;-47
2021/10/06 06:08:10;;;;;;;;;0.00;0.00;;;;;19.43;52.39;101590.50;5059600;28;45434;-45
2021/10/06 06:10:35;;;;;;;;;0.00;0.00;;;;;19.43;52.37;101594.06;5059252;28;47359;-48
2021/10/06 06:13:01;;;;;;;;;0.00;0.00;;;;;19.43;52.33;101591.41;5058952;28;45391;-48
2021/10/06 06:15:26;;;;;;;;;1.67;0.00;;;;;19.43;52.28;101593.19;5059027;28;46601;-46
2021/10/06 06:17:52;;;;;;;;;0.67;0.67;;;;;19.43;52.19;101606.50;5059330;28;45448;-45
2021/10/06 06:20:23;;;;;;;;;1.00;0.33;;;;;19.43;52.10;101598.50;5058923;28;46152;-49
2021/10/06 06:22:50;;;;;;;;;1.00;0.33;;;;;19.41;51.86;101606.53;5058932;28;45438;-47
2021/10/06 06:25:16;;;;;;;;;2.67;1.00;;;;;19.41;51.85;101601.19;5058827;28;45421;-50
2021/10/06 06:27:41;;;;;;;;;1.00;1.00;;;;;19.41;51.66;101606.53;5059162;28;45292;-46
2021/10/06 06:30:07;;;;;;;;;0.33;0.33;;;;;19.41;51.67;101608.28;5058808;28;46304;-45
2021/10/06 06:32:33;;;;;;;;;0.00;0.00;;;;;19.40;51.27;101620.72;5058516;28;45428;-59
2021/10/06 06:34:58;;;;;;;;;0.00;0.00;;;;;19.40;51.29;101622.50;5058985;28;45365;-48
2021/10/06 06:37:23;;;;;;;;;0.67;0.67;;;;;19.41;51.27;101624.28;5059165;28;45203;-48
2021/10/06 06:39:49;;;;;;;;;2.00;1.00;;;;;19.41;51.11;101621.63;5058593;28;46227;-46
2021/10/06 06:42:15;;;;;;;;;2.33;1.00;;;;;19.40;51.18;101622.50;5058445;28;45232;-47
2021/10/06 06:44:40;;;;;;;;;2.00;0.67;;;;;19.40;50.92;101625.16;5058556;28;45222;-45
2021/10/06 06:47:06;;;;;;;;;0.67;0.67;;;;;19.40;50.79;101628.72;5058843;28;45426;-46
2021/10/06 06:49:31;;;;;;;;;1.00;0.00;;;;;19.39;50.73;101637.63;5058430;28;46364;-46
2021/10/06 06:51:59;;;;;;;;;0.67;0.00;;;;;19.39;50.52;101628.75;5058698;28;45188;-46
2021/10/06 06:54:24;;;;;;;;;1.00;1.00;;;;;19.39;50.81;101636.75;5058662;28;45264;-47
2021/10/06 06:56:50;;;;;;;;;1.00;0.00;;;;;19.39;50.53;101640.31;5058555;28;45361;-46
2021/10/06 06:59:15;;;;;;;;;2.00;0.67;;;;;19.39;50.58;101647.41;5058550;28;47187;-45
2021/10/06 07:01:41;;;;;;;;;2.00;1.00;;;;;19.39;50.65;101652.75;5058008;28;45333;-45
2021/10/06 07:04:06;;;;;;;;;1.00;1.00;;;;;19.38;50.46;101657.19;5058528;28;45371;-49
2021/10/06 07:06:35;;;;;;;;;0.00;0.00;;;;;19.38;50.52;101659.84;5058441;28;45425;-46
2021/10/06 07:09:02;;;;;;;;;2.00;0.00;;;;;19.38;50.42;101661.63;5058149;28;46368;-45
2021/10/06 07:11:29;;;;;;;;;0.00;0.00;;;;;19.36;50.11;101653.63;5058073;28;45298;-45
2021/10/06 07:13:54;;;;;;;;;1.67;0.00;;;;;19.37;50.33;101666.09;5058161;28;45338;-46
2021/10/06 07:16:19;;;;;;;;;1.00;1.00;;;;;19.37;50.14;101682.09;5058345;28;45299;-45
2021/10/06 07:18:45;;;;;;;;;2.33;0.00;;;;;19.36;50.15;101674.06;5058111;28;46094;-51
2021/10/06 07:21:11;;;;;;;;;0.33;0.33;;;;;19.36;49.93;101676.72;5058136;28;45354;-45
2021/10/06 07:23:37;;;;;;;;;0.67;0.67;;;;;19.37;49.97;101681.19;5058106;28;45345;-46
2021/10/06 07:26:03;;;;;;;;;3.67;1.00;;;;;19.37;50.01;101687.41;5058042;28;45424;-45
2021/10/06 07:28:28;;;;;;;;;3.33;0.67;;;;;19.36;50.10;101680.28;5057126;28;46958;-45
2021/10/06 07:30:54;;;;;;;;;1.67;1.00;;;;;19.35;49.96;101682.97;5057683;28;45378;-46
2021/10/06 07:33:19;;;;;;;;;0.67;0.67;;;;;19.35;50.03;101672.31;5057775;28;45259;-45
2021/10/06 07:35:45;;;;;;;;;2.67;0.67;;;;;19.35;50.06;101677.66;5058189;28;45500;-45
2021/10/06 07:38:10;;;;;;;;;0.00;0.00;;;;;19.35;50.18;101670.53;5057821;28;47080;-45
2021/10/06 07:40:36;;;;;;;;;3.00;1.00;;;;;19.35;50.06;101678.53;5057676;28;45414;-46
2021/10/06 07:43:01;;;;;;;;;2.33;1.33;;;;;19.35;49.85;101669.66;5057435;28;45195;-45
2021/10/06 07:45:27;;;;;;;;;3.00;1.33;;;;;19.33;50.02;101675.84;5057958;28;45232;-45
2021/10/06 07:47:52;;;;;;;;;1.00;1.00;;;;;19.33;49.87;101686.53;5057589;28;46207;-45
2021/10/06 07:50:17;;;;;;;;;2.00;1.00;;;;;19.33;50.01;101681.19;5057765;28;45343;-45
2021/10/06 07:52:43;;;;;;;;;1.00;1.00;;;;;19.33;49.85;101697.19;5057868;28;45617;-46
2021/10/06 07:55:08;;;;;;;;;0.67;0.67;;;;;19.33;49.86;101697.19;5057872;28;45330;-45
2021/10/06 07:57:35;;;;;;;;;3.00;1.00;;;;;19.32;49.79;101700.75;5057271;28;46955;-44
2021/10/06 08:00:00;;;;;;;;;4.00;0.67;;;;;19.32;49.81;101699.88;5056063;28;45317;-45
2021/10/06 08:02:26;;;;;;;;;5.00;0.50;;;;;19.33;49.70;101710.50;5057539;28;45416;-45
2021/10/06 08:04:52;;;;;;;;;2.00;0.67;;;;;19.32;49.89;101706.09;5057663;28;45460;-45
2021/10/06 08:07:17;;;;;;;;;1.67;0.67;;;;;19.32;49.83;101711.41;5057357;28;45923;-45
2021/10/06 08:09:42;;;;;;;;;3.00;0.33;;;;;19.32;49.74;101716.75;5057367;28;45294;-45
2021/10/06 08:12:20;;;;;;;;;4.33;0.67;;;;;19.32;49.65;101719.41;5057346;28;45287;-46
2021/10/06 08:14:45;;;;;;;;;0.67;0.67;;;;;19.31;49.79;101724.75;5057712;28;45211;-45
2021/10/06 08:17:11;;;;;;;;;1.33;0.00;;;;;19.31;49.87;101725.63;5057188;28;46158;-46
2021/10/06 08:19:36;;;;;;;;;2.00;0.67;;;;;19.32;49.68;101732.75;5057102;28;45222;-46
2021/10/06 08:22:02;;;;;;;;;2.00;1.00;;;;;19.31;49.91;101728.28;5057266;28;45288;-45
2021/10/06 08:24:28;;;;;;;;;1.67;1.00;;;;;19.31;49.73;101738.97;5057405;28;45215;-45
2021/10/06 08:26:53;;;;;;;;;4.00;1.00;;;;;19.30;49.87;101737.19;5056910;28;46381;-46
2021/10/06 08:29:19;;;;;;;;;0.67;0.67;;;;;19.31;49.79;101738.97;5057109;28;45403;-45
2021/10/06 08:31:44;;;;;;;;;2.33;1.00;;;;;19.31;49.51;101738.09;5056767;28;45685;-45
2021/10/06 08:34:09;;;;;;;;;1.00;1.00;;;;;19.31;49.68;101725.63;5057400;28;45487;-48
2021/10/06 08:36:35;;;;;;;;;1.00;1.00;;;;;19.31;49.74;101752.28;5056957;28;46030;-45
2021/10/06 08:39:03;;;;;;;;;1.00;1.00;;;;;19.31;49.76;101741.63;5058584;28;45314;-45
2021/10/06 08:41:31;;;;;;;;;2.67;0.00;;;;;19.31;49.54;101746.09;5060615;28;45342;-47
2021/10/06 08:43:57;;;;;;;;;0.00;0.00;;;;;19.31;49.76;101757.63;5060285;28;45165;-48
2021/10/06 08:46:23;;;;;;;;;1.67;1.67;;;;;19.31;49.69;101748.75;5060324;28;47083;-45
2021/10/06 08:48:53;;;;;;;;;2.33;0.67;;;;;19.30;49.80;101750.53;5060437;28;45370;-45
2021/10/06 08:51:19;;;;;;;;;1.00;1.00;;;;;19.29;49.79;101746.06;5060621;28;45355;-46
2021/10/06 08:53:44;;;;;;;;;0.67;0.67;;;;;19.29;49.55;101748.75;5060614;28;45153;-45
2021/10/06 08:56:09;;;;;;;;;2.33;0.67;;;;;19.29;49.66;101748.75;5060195;28;46265;-45
2021/10/06 08:58:34;;;;;;;;;1.33;1.33;;;;;19.30;49.72;101747.88;5060151;28;45291;-47
2021/10/06 09:01:00;;;;;;;;;0.67;0.67;;;;;19.30;49.71;101749.63;5060554;28;45339;-47
2021/10/06 09:03:33;;;;;;;;;1.33;1.00;;;;;19.29;49.47;101750.53;5060017;28;45339;-47
2021/10/06 09:06:03;;;;;;;;;1.00;0.00;;;;;19.28;49.51;101752.31;5059845;28;47076;-45
2021/10/06 09:08:29;;;;;;;;;0.00;0.00;;;;;19.28;49.77;101760.31;5060035;28;45580;-45
2021/10/06 09:10:55;;;;;;;;;2.00;1.00;;;;;19.28;49.62;101770.06;5060154;28;45330;-47
2021/10/06 09:13:29;;;;;;;;;1.00;1.00;;;;;19.28;49.55;101760.31;5060216;28;45310;-45
2021/10/06 09:15:54;;;;;;;;;0.67;0.67;;;;;19.28;49.63;101756.75;5059943;28;46700;-45
2021/10/06 09:18:22;;;;;;;;;0.67;0.67;;;;;19.27;49.76;101758.53;5059812;28;45393;-48
2021/10/06 09:20:48;;;;;;;;;4.67;1.00;;;;;19.28;49.75;101767.41;5060032;28;45359;-46
2021/10/06 09:23:20;;;;;;;;;2.33;1.67;;;;;19.28;49.63;101767.41;5060107;28;45260;-46
2021/10/06 09:26:00;;;;;;;;;1.00;1.00;;;;;19.27;49.71;101766.50;5059433;28;47367;-50
2021/10/06 09:28:29;;;;;;;;;1.67;0.67;;;;;19.27;49.49;101773.66;5059405;28;45298;-45
2021/10/06 09:31:01;;;;;;;;;1.00;0.67;;;;;19.27;49.59;101765.66;5059833;28;45406;-47
2021/10/06 09:33:56;;;;;;;;;2.33;0.67;;;;;19.27;49.76;101773.66;5059680;28;45568;-45
2021/10/06 09:36:35;;;;;;;;;0.67;0.67;;;;;19.26;49.54;101772.75;5059483;28;47373;-45
2021/10/06 09:39:03;;;;;;;;;0.67;0.67;;;;;19.26;49.76;101769.19;5059476;28;45454;-49
2021/10/06 09:41:37;;;;;;;;;0.67;0.67;;;;;19.26;49.65;101774.53;5059695;28;45347;-45
2021/10/06 09:44:07;;;;;;;;;0.67;0.67;;;;;19.25;49.73;101778.97;5059648;28;45461;-46
2021/10/06 09:46:34;;;;;;;;;2.00;0.67;;;;;19.25;49.74;101773.63;5059456;28;46142;-45
2021/10/06 09:49:00;;;;;;;;;3.33;0.33;;;;;19.26;49.84;101785.19;5059164;28;45268;-47
2021/10/06 09:51:26;;;;;;;;;2.67;1.00;;;;;19.25;49.62;101768.28;5059023;28;45386;-45
2021/10/06 09:53:53;;;;;;;;;2.00;2.00;;;;;19.26;49.89;101777.19;5059655;28;45441;-49
2021/10/06 09:56:19;;;;;;;;;1.00;0.33;;;;;19.25;49.69;101765.63;5059190;28;46189;-45
2021/10/06 09:58:46;;;;;;;;;2.33;1.33;;;;;19.26;49.94;101795.84;5059195;28;45302;-49
2021/10/06 10:01:13;;;;;;;;;0.67;0.67;;;;;19.26;49.72;101785.19;5059488;28;45365;-45
2021/10/06 10:03:39;;;;;;;;;3.00;1.00;;;;;19.25;49.71;101789.63;5059390;28;45346;-57
2021/10/06 10:06:05;;;;;;;;;1.67;1.33;;;;;19.24;49.94;101785.19;5059105;28;46501;-45
2021/10/06 10:08:31;;;;;;;;;2.33;0.67;;;;;19.25;50.01;101783.44;5059266;28;45399;-45
2021/10/06 10:10:56;;;;;;;;;2.00;1.33;;;;;19.25;49.81;101784.28;5059058;28;45421;-45
2021/10/06 10:13:23;;;;;;;;;1.00;1.00;;;;;19.24;49.88;101785.19;5059306;28;45508;-46
2021/10/06 10:15:50;;;;;;;;;0.67;0.67;;;;;19.25;49.92;101791.41;5059095;28;47039;-44
2021/10/06 10:18:18;;;;;;;;;2.33;0.67;;;;;19.24;49.94;101789.63;5058805;28;45424;-46
2021/10/06 10:20:45;;;;;;;;;3.67;1.00;;;;;19.24;50.08;101798.53;5059183;28;45212;-46
2021/10/06 10:23:13;;;;;;;;;2.00;0.67;;;;;19.24;50.09;101795.88;5059116;28;45443;-45
2021/10/06 10:25:43;;;;;;;;;0.00;0.00;;;;;19.24;49.93;101795.88;5058690;28;46221;-46
2021/10/06 10:28:20;;;;;;;;;2.33;0.67;;;;;19.24;49.79;101806.53;5058760;28;45287;-45
2021/10/06 10:30:54;;;;;;;;;2.33;0.67;;;;;19.24;50.14;101802.97;5058665;28;45418;-50
2021/10/06 10:33:43;;;;;;;;;2.67;2.00;;;;;19.24;49.97;101802.97;5058554;28;45487;-45
2021/10/06 10:36:34;;;;;;;;;1.00;1.00;;;;;19.23;49.94;101802.06;5058354;28;46254;-48
2021/10/06 10:39:34;;;;;;;;;2.33;1.00;;;;;19.22;50.10;101802.97;5058784;28;45446;-56
2021/10/06 10:42:00;;;;;;;;;0.67;0.67;;;;;19.24;50.03;101813.63;5058812;28;45536;-48
2021/10/06 10:44:31;;;;;;;;;0.67;0.67;;;;;19.23;50.05;101811.88;5058893;28;45327;-47
2021/10/06 10:46:57;;;;;;;;;1.67;0.00;;;;;19.22;50.10;101800.31;5058319;28;46384;-50
2021/10/06 10:49:23;;;;;;;;;0.67;0.67;;;;;19.21;50.16;101810.06;5058529;28;45434;-52
2021/10/06 10:51:58;;;;;;;;;2.00;0.67;;;;;19.23;50.10;101811.88;5058694;28;45275;-48
2021/10/06 10:54:42;;;;;;;;;0.67;0.67;;;;;19.23;49.92;101822.53;5058601;28;45272;-47
2021/10/06 10:57:16;;;;;;;;;0.67;0.67;;;;;19.21;50.06;101818.06;5058312;28;46453;-55
2021/10/06 10:59:44;;;;;;;;;2.67;1.67;;;;;19.22;49.73;101813.63;5058357;28;45247;-47
2021/10/06 11:02:20;;;;;;;;;2.00;2.00;;;;;19.21;50.00;101802.06;5057480;28;45307;-48
2021/10/06 11:04:54;;;;;;;;;2.67;1.00;;;;;19.21;50.14;101802.06;5058358;28;45254;-45
2021/10/06 11:07:21;;;;;;;;;2.67;1.33;;;;;19.21;50.08;101798.50;5058045;28;46241;-48
2021/10/06 11:09:47;;;;;;;;;0.67;0.67;;;;;19.21;50.00;101799.41;5058092;28;45235;-44
2021/10/06 11:12:12;;;;;;;;;1.33;1.00;;;;;19.21;49.99;101793.19;5058373;28;45317;-45
2021/10/06 11:14:39;;;;;;;;;1.00;1.00;;;;;19.21;50.11;101802.06;5058463;28;45395;-45
2021/10/06 11:17:14;;;;;;;;;2.00;1.00;;;;;19.21;50.16;101804.75;5057984;28;45369;-48
2021/10/06 11:19:43;;;;;;;;;2.67;0.67;;;;;19.20;50.08;101810.97;5058072;28;45282;-46
2021/10/06 11:22:23;;;;;;;;;3.00;1.00;;;;;19.21;50.08;101812.75;5058442;28;45286;-56